Main page
METAR-TAF:

METAR-TAF

Airports :

Cork Airport

Cork, Ireland

latitude: 51-51N, longitude: 008-29W, elevation: 153 m

Current weather observation

The report was made 27 minutes ago, at 05:30 UTC
Wind 6 kt from the West
Temperature 4°C
Humidity 87%
Pressure 1026 hPa
Visibility 10 km or more
Few clouds at a height of 2400 ft

METAR: EICK 170530Z 27006KT 9999 FEW024 04/02 Q1026 NOSIG

Time: 05:57 (05:57 UTC)

Forecast

The report was made 57 minutes ago, at 05:00 UTC
Forecast valid from 17 at 06 UTC to 18 at 06 UTC
Wind 7 kt from the West
Visibility 10 km or more
Few clouds at a height of 2000 ft
Scattered clouds at a height of 3000 ft
Becoming
from 17 at 12 UTC to 17 at 14 UTC
Wind 10 kt from the West/Southwest
Probability 30% :
Temporary
from 18 at 00 UTC to 18 at 06 UTC
Visibility: 4000 m
mist
Becoming
from 18 at 02 UTC to 18 at 04 UTC
Wind 5 kt from the South

TAF: EICK 170500Z 1706/1806 28007KT 9999 FEW020 SCT030 BECMG 1712/1714 24010KT PROB30 TEMPO 1800/1806 4000 BR BECMG 1802/1804 18005KT

Weather observations and forecasts of more than 4000 airports (METAR and TAF reports).

The available stations are represented by yellow and red dots on the map.

Hover mouse over dot to see the name of the station.

Then click to see weather observations and forecasts.

To change the map : click on the green buttons with a black cross to zoom in, on the green button with a dash to zoom out, or on the green arrows for adjacent maps.


METAR-TAF: